createdAt,value
2019-05-17T00:00:30.041Z,75.46
2019-05-17T00:01:30.026Z,75.70
2019-05-17T00:02:30.013Z,75.49
2019-05-17T00:03:29.996Z,76.01
2019-05-17T00:04:29.989Z,75.49
2019-05-17T00:05:30.026Z,76.35
2019-05-17T00:06:29.970Z,76.32
2019-05-17T00:07:29.967Z,76.46
2019-05-17T00:08:34.600Z,76.46
2019-05-17T00:09:30.948Z,76.56
2019-05-17T00:10:29.924Z,76.46
2019-05-17T00:11:29.955Z,76.67
2019-05-17T00:12:42.516Z,76.56
2019-05-17T00:13:29.897Z,76.15
2019-05-17T00:14:29.879Z,76.67
2019-05-17T00:15:29.872Z,76.35
2019-05-17T00:16:29.859Z,76.77
2019-05-17T00:17:29.887Z,76.35
2019-05-17T00:18:29.835Z,76.35
2019-05-17T00:19:29.832Z,76.46
2019-05-17T00:20:29.824Z,76.77
2019-05-17T00:21:29.808Z,76.67
2019-05-17T00:22:29.803Z,76.56
2019-05-17T00:23:29.819Z,77.59
2019-05-17T00:24:29.771Z,76.60
2019-05-17T00:25:29.770Z,77.94
2019-05-17T00:26:29.759Z,77.01
2019-05-17T00:27:29.746Z,77.32
2019-05-17T00:28:29.731Z,77.73
2019-05-17T00:29:29.723Z,77.53
2019-05-17T00:30:29.710Z,77.63
2019-05-17T00:31:29.696Z,77.22
2019-05-17T00:32:29.716Z,77.63
2019-05-17T00:33:29.676Z,77.73
2019-05-17T00:34:29.701Z,77.94
2019-05-17T00:35:29.652Z,77.73
2019-05-17T00:36:29.651Z,78.05
2019-05-17T00:37:29.634Z,77.11
2019-05-17T00:38:29.621Z,76.90
2019-05-17T00:39:29.620Z,77.49
2019-05-17T00:40:29.644Z,77.84
2019-05-17T00:41:29.589Z,78.05
2019-05-17T00:42:29.575Z,77.94
2019-05-17T00:43:40.116Z,77.53
2019-05-17T00:44:29.551Z,77.53
2019-05-17T00:45:29.540Z,77.42
2019-05-17T00:46:29.539Z,77.22
2019-05-17T00:47:29.516Z,78.05
2019-05-17T00:48:29.513Z,78.05
2019-05-17T00:49:29.497Z,77.84
2019-05-17T00:50:29.486Z,77.94
2019-05-17T00:51:29.484Z,77.94
2019-05-17T00:52:29.474Z,78.05
2019-05-17T00:53:29.454Z,78.14
2019-05-17T00:54:29.441Z,78.14
2019-05-17T00:55:29.433Z,78.05
2019-05-17T00:56:29.459Z,77.94
2019-05-17T00:57:29.443Z,78.14
2019-05-17T00:58:29.396Z,78.05
2019-05-17T00:59:29.396Z,78.05
2019-05-17T01:00:29.372Z,78.25
2019-05-17T01:01:29.367Z,78.35
2019-05-17T01:02:29.383Z,77.73
2019-05-17T01:03:29.377Z,77.73
2019-05-17T01:04:29.336Z,78.25
2019-05-17T01:05:29.321Z,78.25
2019-05-17T01:06:29.311Z,78.70
2019-05-17T01:07:29.310Z,78.49
2019-05-17T01:08:29.289Z,78.70
2019-05-17T01:09:29.305Z,79.01
2019-05-17T01:10:29.263Z,79.18
2019-05-17T01:11:29.256Z,80.04
2019-05-17T01:12:29.242Z,79.90
2019-05-17T01:13:29.226Z,79.94
2019-05-17T01:14:39.988Z,79.63
2019-05-17T01:15:29.203Z,79.94
2019-05-17T01:16:29.196Z,80.04
2019-05-17T01:17:29.185Z,80.04
2019-05-17T01:18:29.178Z,80.35
2019-05-17T01:19:29.167Z,80.15
2019-05-17T01:20:29.172Z,80.66
2019-05-17T01:21:29.168Z,79.94
2019-05-17T01:22:29.137Z,80.66
2019-05-17T01:23:29.117Z,79.94
2019-05-17T01:24:29.103Z,79.94
2019-05-17T01:25:29.092Z,80.25
2019-05-17T01:26:29.098Z,79.94
2019-05-17T01:27:29.093Z,80.21
2019-05-17T01:28:29.087Z,81.66
2019-05-17T01:29:29.054Z,80.56
2019-05-17T01:30:29.047Z,81.07
2019-05-17T01:31:29.035Z,81.18
2019-05-17T01:32:29.020Z,81.28
2019-05-17T01:33:29.015Z,80.87
2019-05-17T01:34:28.999Z,81.18
2019-05-17T01:35:28.982Z,81.28
2019-05-17T01:36:28.981Z,81.38
2019-05-17T01:37:28.990Z,81.49
2019-05-17T01:38:28.946Z,80.66
2019-05-17T01:39:28.940Z,81.59
2019-05-17T01:40:28.926Z,81.38
2019-05-17T01:41:28.945Z,81.28
2019-05-17T01:42:28.911Z,81.28
2019-05-17T01:43:28.897Z,81.18
2019-05-17T01:44:28.881Z,81.66
2019-05-17T01:45:41.812Z,80.00
2019-05-17T01:46:28.898Z,80.04
2019-05-17T01:47:28.853Z,79.94
2019-05-17T01:48:28.841Z,80.46
2019-05-17T01:49:28.833Z,81.18
2019-05-17T01:50:28.819Z,81.49
2019-05-17T01:51:28.804Z,79.94
2019-05-17T01:52:28.804Z,81.45
2019-05-17T01:53:28.788Z,81.04
2019-05-17T01:54:28.776Z,80.32
2019-05-17T01:55:28.767Z,80.00
2019-05-17T01:56:28.754Z,79.45
2019-05-17T01:57:28.758Z,79.90
2019-05-17T01:58:28.725Z,80.00
2019-05-17T01:59:28.718Z,80.18
2019-05-17T02:00:28.706Z,79.97
2019-05-17T02:01:28.692Z,80.58
2019-05-17T02:02:28.685Z,79.97
2019-05-17T02:03:28.676Z,79.97
2019-05-17T02:04:28.658Z,79.86
2019-05-17T02:05:28.652Z,79.76
2019-05-17T02:06:28.635Z,79.83
2019-05-17T02:07:28.626Z,79.52
2019-05-17T02:08:28.651Z,79.72
2019-05-17T02:09:37.049Z,78.90
2019-05-17T02:10:29.598Z,78.66
2019-05-17T02:11:28.590Z,78.04
2019-05-17T02:12:28.571Z,77.83
2019-05-17T02:13:28.573Z,76.56
2019-05-17T02:14:28.595Z,76.35
2019-05-17T02:15:28.547Z,76.73
2019-05-17T02:16:41.074Z,77.28
2019-05-17T02:17:28.519Z,75.81
2019-05-17T02:18:28.513Z,76.21
2019-05-17T02:19:28.499Z,76.21
2019-05-17T02:20:28.501Z,76.21
2019-05-17T02:21:28.483Z,75.90
2019-05-17T02:22:28.472Z,75.97
2019-05-17T02:23:28.459Z,75.15
2019-05-17T02:24:28.449Z,75.25
2019-05-17T02:25:28.440Z,75.25
2019-05-17T02:26:28.439Z,74.91
2019-05-17T02:27:34.778Z,74.60
2019-05-17T02:28:29.396Z,74.36
2019-05-17T02:29:28.392Z,74.15
2019-05-17T02:30:28.383Z,74.33
2019-05-17T02:31:28.380Z,74.63
2019-05-17T02:32:28.487Z,74.33
2019-05-17T02:33:28.357Z,74.05
2019-05-17T02:34:28.335Z,72.24
2019-05-17T02:35:28.326Z,69.81
2019-05-17T02:36:28.328Z,67.05
2019-05-17T02:37:28.350Z,64.89
2019-05-17T02:38:28.303Z,61.73
2019-05-17T02:39:28.287Z,60.32
2019-05-17T02:40:28.281Z,58.53
2019-05-17T02:41:28.265Z,56.88
2019-05-17T02:42:28.251Z,56.01
2019-05-17T02:43:35.549Z,54.84
2019-05-17T02:44:28.223Z,54.11
2019-05-17T02:45:28.220Z,53.58
2019-05-17T02:46:28.207Z,52.13
2019-05-17T02:47:28.243Z,51.29
2019-05-17T02:48:28.200Z,51.17
2019-05-17T02:49:28.186Z,50.34
2019-05-17T02:50:28.159Z,49.70
2019-05-17T02:51:28.154Z,49.10
2019-05-17T02:52:28.147Z,49.19
2019-05-17T02:53:28.144Z,48.14
2019-05-17T02:54:28.117Z,47.20
2019-05-17T02:55:28.111Z,46.40
2019-05-17T02:56:28.113Z,45.75
2019-05-17T02:57:28.088Z,45.85
2019-05-17T02:58:28.129Z,44.84
2019-05-17T02:59:28.091Z,44.29
2019-05-17T03:00:28.057Z,44.71
2019-05-17T03:01:28.039Z,45.06
2019-05-17T03:02:28.314Z,45.14
2019-05-17T03:03:28.023Z,43.79
2019-05-17T03:04:28.019Z,43.66
2019-05-17T03:05:28.008Z,44.09
2019-05-17T03:06:27.987Z,44.43
2019-05-17T03:07:27.976Z,44.62
2019-05-17T03:08:27.961Z,44.29
2019-05-17T03:09:27.974Z,43.99
2019-05-17T03:10:28.993Z,43.89
2019-05-17T03:11:27.952Z,43.57
2019-05-17T03:12:27.927Z,43.14
2019-05-17T03:13:27.923Z,42.54
2019-05-17T03:14:43.354Z,41.81
2019-05-17T03:15:27.912Z,41.99
2019-05-17T03:16:27.878Z,41.41
2019-05-17T03:17:27.867Z,41.71
2019-05-17T03:18:27.851Z,41.59
2019-05-17T03:19:27.844Z,41.33
2019-05-17T03:20:27.844Z,39.60
2019-05-17T03:21:27.820Z,40.00
2019-05-17T03:22:27.814Z,39.80
2019-05-17T03:23:27.813Z,39.94
2019-05-17T03:24:27.786Z,39.90
2019-05-17T03:25:27.793Z,39.82
2019-05-17T03:26:27.790Z,39.70
2019-05-17T03:27:27.763Z,40.30
2019-05-17T03:28:27.754Z,40.42
2019-05-17T03:29:27.735Z,40.22
2019-05-17T03:30:27.731Z,40.95
2019-05-17T03:31:34.442Z,41.13
2019-05-17T03:32:28.725Z,40.62
2019-05-17T03:33:27.800Z,40.75
2019-05-17T03:34:27.711Z,41.37
2019-05-17T03:35:27.676Z,41.06
2019-05-17T03:36:27.697Z,41.47
2019-05-17T03:37:32.922Z,41.71
2019-05-17T03:38:28.670Z,41.67
2019-05-17T03:39:27.631Z,41.27
2019-05-17T03:40:58.352Z,41.45
2019-05-17T03:41:29.526Z,40.33
2019-05-17T03:42:27.637Z,40.00
2019-05-17T03:43:27.583Z,39.86
2019-05-17T03:44:27.584Z,39.25
2019-05-17T03:45:38.046Z,38.22
2019-05-17T03:46:27.557Z,38.24
2019-05-17T03:47:27.540Z,39.76
2019-05-17T03:48:27.543Z,40.08
2019-05-17T03:49:27.519Z,39.60
2019-05-17T03:50:27.515Z,41.01
2019-05-17T03:51:27.505Z,39.86
2019-05-17T03:52:27.498Z,40.17
2019-05-17T03:53:27.522Z,39.76
2019-05-17T03:54:27.472Z,40.47
2019-05-17T03:55:27.460Z,39.04
2019-05-17T03:56:27.450Z,39.45
2019-05-17T03:57:27.435Z,39.84
2019-05-17T03:58:27.438Z,39.75
2019-05-17T03:59:27.425Z,38.62
2019-05-17T04:00:27.416Z,39.23
2019-05-17T04:01:27.395Z,37.90
2019-05-17T04:02:27.382Z,38.49
2019-05-17T04:03:31.004Z,37.35
2019-05-17T04:04:28.361Z,37.66
2019-05-17T04:05:27.360Z,36.96
2019-05-17T04:06:27.353Z,37.98
2019-05-17T04:07:27.347Z,38.51
2019-05-17T04:08:27.324Z,38.00
2019-05-17T04:09:27.328Z,38.18
2019-05-17T04:10:27.300Z,37.48
2019-05-17T04:11:31.792Z,39.14
2019-05-17T04:12:28.283Z,39.54
2019-05-17T04:13:27.275Z,39.34
2019-05-17T04:14:27.253Z,40.08
2019-05-17T04:15:27.269Z,38.92
2019-05-17T04:16:42.846Z,39.32
2019-05-17T04:17:27.224Z,38.70
2019-05-17T04:18:27.215Z,38.17
2019-05-17T04:19:27.205Z,37.33
2019-05-17T04:20:27.199Z,37.05
2019-05-17T04:21:27.186Z,37.66
2019-05-17T04:22:27.169Z,37.57
2019-05-17T04:23:27.157Z,37.77
2019-05-17T04:24:27.174Z,37.65
2019-05-17T04:25:27.178Z,37.15
2019-05-17T04:26:27.130Z,37.21
2019-05-17T04:27:27.124Z,36.71
2019-05-17T04:28:27.105Z,36.71
2019-05-17T04:29:27.094Z,35.78
2019-05-17T04:30:27.096Z,34.64
2019-05-17T04:31:30.487Z,34.63
2019-05-17T04:32:28.069Z,34.64
2019-05-17T04:33:27.058Z,34.93
2019-05-17T04:34:27.043Z,34.48
2019-05-17T04:35:27.064Z,33.88
2019-05-17T04:36:27.030Z,32.86
2019-05-17T04:37:38.323Z,33.34
2019-05-17T04:38:27.013Z,31.99
2019-05-17T04:39:26.986Z,30.87
2019-05-17T04:40:26.977Z,31.90
2019-05-17T04:41:41.484Z,31.78
2019-05-17T04:42:28.012Z,33.37
2019-05-17T04:43:26.985Z,34.93
2019-05-17T04:44:26.951Z,34.69
2019-05-17T04:45:26.926Z,34.11
2019-05-17T04:46:26.921Z,35.03
2019-05-17T04:47:26.906Z,35.85
2019-05-17T04:48:26.943Z,35.53
2019-05-17T04:49:26.890Z,34.71
2019-05-17T04:50:26.873Z,33.98
2019-05-17T04:51:26.867Z,32.95
2019-05-17T04:52:26.883Z,33.37
2019-05-17T04:53:26.847Z,32.65
2019-05-17T04:54:35.384Z,32.64
2019-05-17T04:55:26.839Z,33.98
2019-05-17T04:56:26.953Z,34.71
2019-05-17T04:57:26.811Z,34.83
2019-05-17T04:58:26.928Z,34.71
2019-05-17T04:59:26.783Z,34.41
2019-05-17T05:00:26.834Z,35.21
2019-05-17T05:01:26.762Z,34.51
2019-05-17T05:02:26.761Z,35.29
2019-05-17T05:03:26.782Z,34.69
2019-05-17T05:04:26.804Z,35.85
2019-05-17T05:05:26.720Z,35.31
2019-05-17T05:06:26.710Z,35.39
2019-05-17T05:07:26.702Z,35.23
2019-05-17T05:09:43.285Z,34.81
2019-05-17T05:10:43.077Z,35.83
2019-05-17T05:11:56.162Z,35.85
2019-05-17T05:14:12.555Z,37.01
2019-05-17T05:15:12.023Z,37.53
2019-05-17T05:16:09.593Z,37.41
2019-05-17T05:17:09.568Z,37.31
2019-05-17T05:18:12.935Z,36.46
2019-05-17T05:19:09.537Z,36.56
2019-05-17T05:20:12.773Z,35.94
2019-05-17T05:21:17.467Z,36.47
2019-05-17T05:22:09.527Z,36.69
2019-05-17T05:23:12.305Z,36.36
2019-05-17T05:24:11.414Z,35.74
2019-05-17T05:25:09.592Z,34.31
2019-05-17T05:26:11.861Z,34.43
2019-05-17T05:27:11.535Z,35.03
2019-05-17T05:28:11.408Z,34.21
2019-05-17T05:29:09.421Z,34.41
2019-05-17T05:30:11.860Z,33.47
2019-05-17T05:31:09.398Z,33.37
2019-05-17T05:32:11.655Z,32.67
2019-05-17T05:33:09.416Z,33.35
2019-05-17T05:34:09.377Z,35.21
2019-05-17T05:35:12.064Z,35.11
2019-05-17T05:36:11.417Z,34.01
2019-05-17T05:37:09.335Z,34.50
2019-05-17T05:38:18.536Z,33.36
2019-05-17T05:39:11.529Z,32.85
2019-05-17T05:40:09.300Z,33.23
2019-05-17T05:41:12.219Z,31.59
2019-05-17T05:42:11.510Z,32.20
2019-05-17T05:44:21.519Z,30.85
2019-05-17T05:45:32.102Z,31.06
2019-05-17T05:47:32.323Z,31.86
2019-05-17T05:48:32.681Z,32.26
2019-05-17T05:49:32.037Z,33.10
2019-05-17T05:50:32.336Z,32.78
2019-05-17T05:51:32.038Z,32.06
2019-05-17T05:52:32.373Z,31.15
2019-05-17T05:53:32.535Z,34.43
2019-05-17T05:54:32.007Z,33.30
2019-05-17T05:55:32.134Z,34.01
2019-05-17T05:56:32.630Z,34.98
2019-05-17T05:57:32.209Z,36.33
2019-05-17T05:58:32.230Z,36.93
2019-05-17T05:59:31.734Z,36.93
2019-05-17T06:00:32.993Z,36.63
2019-05-17T06:01:32.556Z,37.27
2019-05-17T06:02:32.277Z,37.48
2019-05-17T06:03:32.067Z,38.40
2019-05-17T06:04:31.884Z,38.18
2019-05-17T06:05:32.519Z,38.82
2019-05-17T06:06:41.494Z,38.31
2019-05-17T06:07:32.216Z,38.62
2019-05-17T06:08:32.420Z,37.87
2019-05-17T06:09:31.839Z,38.39
2019-05-17T06:12:02.636Z,39.75
2019-05-17T06:13:03.260Z,40.05
2019-05-17T06:14:02.258Z,40.62
2019-05-17T06:15:02.779Z,43.52
2019-05-17T06:17:12.579Z,42.92
2019-05-17T06:18:12.315Z,43.54
2019-05-17T06:19:11.935Z,44.65
2019-05-17T06:20:11.939Z,45.07
2019-05-17T06:21:12.254Z,45.46
2019-05-17T06:22:12.114Z,44.05
2019-05-17T06:23:12.486Z,44.55
2019-05-17T06:24:12.056Z,44.25
2019-05-17T06:25:14.850Z,45.07
2019-05-17T06:26:23.490Z,45.18
2019-05-17T06:28:22.544Z,44.67
2019-05-17T06:29:22.521Z,45.26
2019-05-17T06:30:22.517Z,44.65
2019-05-17T06:31:24.086Z,45.26
2019-05-17T06:32:22.909Z,45.26
2019-05-17T06:33:30.618Z,44.87
2019-05-17T06:34:23.591Z,45.30
2019-05-17T06:35:22.504Z,45.90
2019-05-17T06:36:22.450Z,46.43
2019-05-17T06:37:22.555Z,46.31
2019-05-17T06:38:22.631Z,46.61
2019-05-17T06:39:22.594Z,46.43
2019-05-17T06:40:22.412Z,46.43
2019-05-17T06:41:22.399Z,46.88
2019-05-17T06:42:36.986Z,47.49
2019-05-17T06:43:23.445Z,46.86
2019-05-17T06:44:22.621Z,46.73
2019-05-17T06:45:22.441Z,46.51
2019-05-17T06:46:22.353Z,45.56
2019-05-17T06:47:22.642Z,45.34
2019-05-17T06:48:22.723Z,44.51
2019-05-17T06:49:22.561Z,43.68
2019-05-17T06:50:23.631Z,43.36
2019-05-17T06:51:22.393Z,42.76
2019-05-17T06:52:22.708Z,43.46
2019-05-17T06:53:22.819Z,44.09
2019-05-17T06:54:22.427Z,44.11
2019-05-17T06:55:24.249Z,44.51
2019-05-17T06:56:22.960Z,43.88
2019-05-17T06:57:23.294Z,43.68
2019-05-17T06:58:31.386Z,44.51
2019-05-17T06:59:22.197Z,45.54
2019-05-17T07:00:23.879Z,45.34
2019-05-17T07:01:22.181Z,45.86
2019-05-17T07:02:22.160Z,47.12
2019-05-17T07:03:22.169Z,45.93
2019-05-17T07:04:22.144Z,46.64
2019-05-17T07:05:22.255Z,47.32
2019-05-17T07:06:22.118Z,46.61
2019-05-17T07:07:22.108Z,46.81
2019-05-17T07:08:22.092Z,45.70
2019-05-17T07:09:22.086Z,45.28
2019-05-17T07:10:22.071Z,44.78
2019-05-17T07:11:22.097Z,45.28
2019-05-17T07:12:22.069Z,45.00
2019-05-17T07:13:30.136Z,44.01
2019-05-17T07:14:22.024Z,44.39
2019-05-17T07:15:22.020Z,44.11
2019-05-17T07:16:22.016Z,43.89
2019-05-17T07:17:22.002Z,42.98
2019-05-17T07:18:22.080Z,43.06
2019-05-17T07:19:21.984Z,41.95
2019-05-17T07:20:21.966Z,43.28
2019-05-17T07:21:21.951Z,42.78
2019-05-17T07:22:21.998Z,43.18
2019-05-17T07:23:21.925Z,42.90
2019-05-17T07:24:21.918Z,43.60
2019-05-17T07:25:21.906Z,43.71
2019-05-17T07:26:21.894Z,43.60
2019-05-17T07:27:21.894Z,43.65
2019-05-17T07:28:21.910Z,44.03
2019-05-17T07:29:22.151Z,43.73
2019-05-17T07:30:21.873Z,44.03
2019-05-17T07:31:23.204Z,43.48
2019-05-17T07:32:21.838Z,43.06
2019-05-17T07:33:21.829Z,42.03
2019-05-17T07:34:21.825Z,41.73
2019-05-17T07:35:21.798Z,42.33
2019-05-17T07:36:21.789Z,41.81
2019-05-17T07:37:21.885Z,41.29
2019-05-17T07:38:21.776Z,40.16
2019-05-17T07:39:21.787Z,40.16
2019-05-17T07:40:21.743Z,39.76
2019-05-17T07:41:21.729Z,40.16
2019-05-17T07:42:22.033Z,39.96
2019-05-17T07:43:21.734Z,40.77
2019-05-17T07:44:34.413Z,40.97
2019-05-17T07:45:21.682Z,39.64
2019-05-17T07:46:21.671Z,39.84
2019-05-17T07:47:21.665Z,39.54
2019-05-17T07:48:21.649Z,40.33
2019-05-17T07:49:21.644Z,39.43
2019-05-17T07:50:21.673Z,40.89
2019-05-17T07:51:21.622Z,41.02
2019-05-17T07:52:21.661Z,41.42
2019-05-17T07:53:21.619Z,41.63
2019-05-17T07:54:21.769Z,41.25
2019-05-17T07:55:23.036Z,41.75
2019-05-17T07:56:21.587Z,41.83
2019-05-17T07:57:21.695Z,41.42
2019-05-17T07:58:21.647Z,41.11
2019-05-17T07:59:21.545Z,41.35
2019-05-17T08:00:21.540Z,41.85
2019-05-17T08:01:21.535Z,41.65
2019-05-17T08:02:21.560Z,41.73
2019-05-17T08:03:24.631Z,42.41
2019-05-17T08:04:21.508Z,41.31
2019-05-17T08:05:21.651Z,41.11
2019-05-17T08:06:21.475Z,41.71
2019-05-17T08:07:21.447Z,41.53
2019-05-17T08:08:21.531Z,41.85
2019-05-17T08:09:21.425Z,42.86
2019-05-17T08:10:21.415Z,42.76
2019-05-17T08:11:21.422Z,42.74
2019-05-17T08:12:21.388Z,41.93
2019-05-17T08:13:30.180Z,41.73
2019-05-17T08:14:29.937Z,41.63
2019-05-17T08:16:35.673Z,41.53
2019-05-17T08:17:35.627Z,41.81
2019-05-17T08:18:35.647Z,41.71
2019-05-17T08:19:35.643Z,41.83
2019-05-17T08:20:35.583Z,41.83
2019-05-17T08:21:35.605Z,41.63
2019-05-17T08:22:35.576Z,41.33
2019-05-17T08:23:35.670Z,42.03
2019-05-17T08:24:35.594Z,42.55
2019-05-17T08:25:49.686Z,42.13
2019-05-17T08:26:36.720Z,42.66
2019-05-17T08:27:35.871Z,43.04
2019-05-17T08:28:44.830Z,42.54
2019-05-17T08:29:35.536Z,41.81
2019-05-17T08:30:35.471Z,42.40
2019-05-17T08:31:35.461Z,41.37
2019-05-17T08:32:35.465Z,40.16
2019-05-17T08:33:35.436Z,39.68
2019-05-17T08:34:35.491Z,41.31
2019-05-17T08:35:35.498Z,40.91
2019-05-17T08:38:10.209Z,41.51
2019-05-17T08:39:10.208Z,41.63
2019-05-17T08:40:10.506Z,42.54
2019-05-17T08:41:10.446Z,42.74
2019-05-17T08:42:09.830Z,43.34
2019-05-17T08:43:09.991Z,42.72
2019-05-17T08:44:10.115Z,41.79
2019-05-17T08:45:09.668Z,41.79
2019-05-17T08:46:10.451Z,41.59
2019-05-17T08:47:10.082Z,41.49
2019-05-17T08:48:09.521Z,41.99
2019-05-17T08:49:09.774Z,41.79
2019-05-17T08:50:08.093Z,41.39
2019-05-17T08:51:10.583Z,41.61
2019-05-17T08:52:09.881Z,42.11
2019-05-17T08:53:10.399Z,41.71
2019-05-17T08:54:10.146Z,41.81
2019-05-17T08:55:09.663Z,41.51
2019-05-17T08:56:10.042Z,41.19
2019-05-17T08:57:09.591Z,41.37
2019-05-17T08:58:10.319Z,41.89
2019-05-17T08:59:09.628Z,41.19
2019-05-17T09:00:10.548Z,41.29
2019-05-17T09:01:10.913Z,41.20
2019-05-17T09:02:10.648Z,41.61
2019-05-17T09:03:10.361Z,41.71
2019-05-17T09:04:09.262Z,41.31
2019-05-17T09:05:09.895Z,41.49
2019-05-17T09:06:11.982Z,41.37
2019-05-17T09:07:09.435Z,41.39
2019-05-17T09:08:15.227Z,41.87
2019-05-17T09:09:10.035Z,41.19
2019-05-17T09:10:10.021Z,41.31
2019-05-17T09:11:09.873Z,41.89
2019-05-17T09:12:07.836Z,41.09
2019-05-17T09:13:10.576Z,41.89
2019-05-17T09:14:10.269Z,41.39
2019-05-17T09:15:09.827Z,41.09
2019-05-17T09:16:07.851Z,41.17
2019-05-17T09:17:10.083Z,39.58
2019-05-17T09:18:09.880Z,41.51
2019-05-17T09:19:09.949Z,41.61
2019-05-17T09:20:10.526Z,41.51
2019-05-17T09:21:09.729Z,41.33
2019-05-17T09:22:10.343Z,41.41
2019-05-17T09:23:09.651Z,41.11
2019-05-17T09:24:10.242Z,41.79
2019-05-17T09:25:11.010Z,40.80
2019-05-17T09:26:10.086Z,41.33
2019-05-17T09:27:10.677Z,41.73
2019-05-17T09:28:09.879Z,41.41
2019-05-17T09:29:07.651Z,41.09
2019-05-17T09:30:09.480Z,40.18
2019-05-17T09:31:07.632Z,40.08
2019-05-17T09:32:09.533Z,41.17
2019-05-17T09:33:07.615Z,40.08
2019-05-17T09:34:09.539Z,39.98
2019-05-17T09:35:09.932Z,40.99
2019-05-17T09:36:09.985Z,41.59
2019-05-17T09:37:09.784Z,41.09
2019-05-17T09:38:10.110Z,41.37
2019-05-17T09:39:20.870Z,41.17
2019-05-17T09:40:09.367Z,41.19
2019-05-17T09:41:09.350Z,41.59
2019-05-17T09:42:07.519Z,41.41
2019-05-17T09:43:09.857Z,41.19
2019-05-17T09:44:13.036Z,41.06
2019-05-17T09:45:09.630Z,41.47
2019-05-17T09:46:10.388Z,41.47
2019-05-17T09:47:10.008Z,40.14
2019-05-17T09:48:09.966Z,40.97
2019-05-17T09:49:10.155Z,40.64
2019-05-17T09:50:09.672Z,41.95
2019-05-17T09:51:07.443Z,41.35
2019-05-17T09:52:09.466Z,41.45
2019-05-17T09:53:07.641Z,41.53
2019-05-17T09:54:07.470Z,40.62
2019-05-17T09:55:09.908Z,41.55
2019-05-17T09:56:09.764Z,40.12
2019-05-17T09:57:09.746Z,40.02
2019-05-17T09:58:09.699Z,40.50
2019-05-17T09:59:09.759Z,40.83
2019-05-17T10:00:09.676Z,41.25
2019-05-17T10:01:09.306Z,41.17
2019-05-17T10:02:09.410Z,41.41
2019-05-17T10:03:09.559Z,41.89
2019-05-17T10:04:07.302Z,41.20
2019-05-17T10:05:07.296Z,41.71
2019-05-17T10:06:09.495Z,41.49
2019-05-17T10:07:07.244Z,41.79
2019-05-17T10:08:07.220Z,41.09
2019-05-17T10:09:09.449Z,42.60
2019-05-17T10:10:20.753Z,41.59
2019-05-17T10:11:09.663Z,41.59
2019-05-17T10:12:09.381Z,42.50
2019-05-17T10:13:09.539Z,42.15
2019-05-17T10:14:07.162Z,41.57
2019-05-17T10:15:07.165Z,41.57
2019-05-17T10:16:07.158Z,41.55
2019-05-17T10:17:09.718Z,41.37
2019-05-17T10:18:07.103Z,41.47
2019-05-17T10:19:09.457Z,41.37
2019-05-17T10:20:07.087Z,41.77
2019-05-17T10:21:07.116Z,41.25
2019-05-17T10:22:07.076Z,40.66
2019-05-17T10:23:07.098Z,41.99
2019-05-17T10:24:09.418Z,41.49
2019-05-17T10:25:09.436Z,42.10
2019-05-17T10:26:07.114Z,42.30
2019-05-17T10:27:07.047Z,41.99
2019-05-17T10:28:07.012Z,41.81
2019-05-17T10:29:06.988Z,41.63
2019-05-17T10:30:06.969Z,41.51
2019-05-17T10:31:06.965Z,41.81
2019-05-17T10:32:06.958Z,41.69
2019-05-17T10:33:09.569Z,41.69
2019-05-17T10:34:09.440Z,41.51
2019-05-17T10:35:06.963Z,41.91
2019-05-17T10:36:06.911Z,42.70
2019-05-17T10:37:07.043Z,41.69
2019-05-17T10:38:06.894Z,41.87
2019-05-17T10:39:06.891Z,41.95
2019-05-17T10:40:06.858Z,41.63
2019-05-17T10:41:19.899Z,41.65
2019-05-17T10:42:06.863Z,41.65
2019-05-17T10:43:06.927Z,41.15
2019-05-17T10:44:06.843Z,41.97
2019-05-17T10:45:06.809Z,41.57
2019-05-17T10:46:06.831Z,41.35
2019-05-17T10:47:06.860Z,41.06
2019-05-17T10:48:06.822Z,40.86
2019-05-17T10:49:06.765Z,41.06
2019-05-17T10:50:06.902Z,41.57
2019-05-17T10:51:06.742Z,41.15
2019-05-17T10:52:06.775Z,40.26
2019-05-17T10:53:06.715Z,40.06
2019-05-17T10:54:06.731Z,40.36
2019-05-17T10:55:06.692Z,40.86
2019-05-17T10:56:06.683Z,40.34
2019-05-17T10:57:06.693Z,39.86
2019-05-17T10:58:10.089Z,41.17
2019-05-17T10:59:06.738Z,41.87
2019-05-17T11:00:06.679Z,39.96
2019-05-17T11:01:10.134Z,39.86
2019-05-17T11:02:09.797Z,40.70
2019-05-17T11:03:06.656Z,41.41
2019-05-17T11:05:06.632Z,41.19
2019-05-17T11:06:06.569Z,39.65
2019-05-17T11:07:06.890Z,41.06
2019-05-17T11:08:06.571Z,39.76
2019-05-17T11:09:06.578Z,40.86
2019-05-17T11:10:06.611Z,40.56
2019-05-17T11:11:06.548Z,39.64
2019-05-17T11:12:19.090Z,39.65
2019-05-17T11:13:06.490Z,40.75
2019-05-17T11:14:06.480Z,39.25
2019-05-17T11:15:11.369Z,39.76
2019-05-17T11:16:07.466Z,39.98
2019-05-17T11:17:06.449Z,40.38
2019-05-17T11:18:06.434Z,39.58
2019-05-17T11:19:08.748Z,40.10
2019-05-17T11:20:06.414Z,40.80
2019-05-17T11:21:06.443Z,40.42
2019-05-17T11:22:06.401Z,39.92
2019-05-17T11:23:06.396Z,39.50
2019-05-17T11:24:06.371Z,40.18
2019-05-17T11:25:06.370Z,38.59
2019-05-17T11:26:06.349Z,38.89
2019-05-17T11:27:06.353Z,39.70
2019-05-17T11:28:06.336Z,38.69
2019-05-17T11:29:06.328Z,40.10
2019-05-17T11:30:06.307Z,39.59
2019-05-17T11:31:06.288Z,40.08
2019-05-17T11:32:06.319Z,38.45
2019-05-17T11:33:06.269Z,39.15
2019-05-17T11:34:06.257Z,38.65
2019-05-17T11:35:06.263Z,38.35
2019-05-17T11:36:06.242Z,38.55
2019-05-17T11:37:06.229Z,38.15
2019-05-17T11:38:06.815Z,38.45
2019-05-17T11:39:06.234Z,38.65
2019-05-17T11:40:08.222Z,38.85
2019-05-17T11:41:20.340Z,38.33
2019-05-17T11:42:07.174Z,37.12
2019-05-17T11:43:19.371Z,37.95
2019-05-17T11:44:06.150Z,37.45
2019-05-17T11:45:06.135Z,38.35
2019-05-17T11:46:06.121Z,38.45
2019-05-17T11:47:06.125Z,38.05
2019-05-17T11:48:06.119Z,37.43
2019-05-17T11:49:06.096Z,37.74
2019-05-17T11:50:06.105Z,37.23
2019-05-17T11:51:06.075Z,37.85
2019-05-17T11:52:06.068Z,37.95
2019-05-17T11:53:06.055Z,38.53
2019-05-17T11:54:06.058Z,38.03
2019-05-17T11:55:06.021Z,38.13
2019-05-17T11:56:06.021Z,38.15
2019-05-17T11:57:06.006Z,38.13
2019-05-17T11:58:05.991Z,37.85
2019-05-17T11:59:05.994Z,37.24
2019-05-17T12:00:05.979Z,37.85
2019-05-17T12:01:05.957Z,37.34
2019-05-17T12:02:05.950Z,37.23
2019-05-17T12:03:05.937Z,37.54
2019-05-17T12:04:05.961Z,37.43
2019-05-17T12:05:05.922Z,36.02
2019-05-17T12:06:05.907Z,36.84
2019-05-17T12:07:05.889Z,37.24
2019-05-17T12:08:08.643Z,37.14
2019-05-17T12:09:05.871Z,37.24
2019-05-17T12:10:05.866Z,36.66
2019-05-17T12:11:05.848Z,37.34
2019-05-17T12:12:05.836Z,36.96
2019-05-17T12:13:05.827Z,36.86
2019-05-17T12:14:19.059Z,37.74
2019-05-17T12:15:05.837Z,37.23
2019-05-17T12:16:05.791Z,36.82
2019-05-17T12:17:05.787Z,36.52
2019-05-17T12:18:05.769Z,36.32
2019-05-17T12:19:05.756Z,36.44
2019-05-17T12:20:05.746Z,36.62
2019-05-17T12:21:05.747Z,35.23
2019-05-17T12:22:05.730Z,36.46
2019-05-17T12:23:05.722Z,37.36
2019-05-17T12:24:05.702Z,36.15
2019-05-17T12:25:05.695Z,36.76
2019-05-17T12:26:05.717Z,36.54
2019-05-17T12:27:05.668Z,36.82
2019-05-17T12:28:05.663Z,36.22
2019-05-17T12:29:05.647Z,36.22
2019-05-17T12:30:05.641Z,36.33
2019-05-17T12:31:05.623Z,34.92
2019-05-17T12:32:05.763Z,36.33
2019-05-17T12:33:05.599Z,35.93
2019-05-17T12:34:05.588Z,35.85
2019-05-17T12:35:05.575Z,35.53
2019-05-17T12:36:05.564Z,36.04
2019-05-17T12:37:05.555Z,36.25
2019-05-17T12:38:05.554Z,36.25
2019-05-17T12:39:05.536Z,35.25
2019-05-17T12:40:05.524Z,36.25
2019-05-17T12:41:05.515Z,36.55
2019-05-17T12:42:05.537Z,36.25
2019-05-17T12:43:05.523Z,36.86
2019-05-17T12:44:05.484Z,36.76
2019-05-17T12:45:18.449Z,36.94
2019-05-17T12:46:05.455Z,36.24
2019-05-17T12:47:05.446Z,35.83
2019-05-17T12:48:05.440Z,36.13
2019-05-17T12:49:05.439Z,36.25
2019-05-17T12:50:05.426Z,36.24
2019-05-17T12:51:05.401Z,36.33
2019-05-17T12:52:05.388Z,35.73
2019-05-17T12:53:05.398Z,35.55
2019-05-17T12:54:05.373Z,36.54
2019-05-17T12:55:05.402Z,36.32
2019-05-17T12:56:05.347Z,35.73
2019-05-17T12:57:05.334Z,35.33
2019-05-17T12:58:05.323Z,35.33
2019-05-17T12:59:05.320Z,34.83
2019-05-17T13:00:05.306Z,35.43
2019-05-17T13:01:05.297Z,36.24
2019-05-17T13:02:05.274Z,36.84
2019-05-17T13:03:05.278Z,35.51
2019-05-17T13:04:05.271Z,34.63
2019-05-17T13:05:05.260Z,34.63